createdAt,value
2019-02-24T00:01:21.076Z,48.40
2019-02-24T00:03:51.659Z,49.30
2019-02-24T00:06:21.777Z,48.60
2019-02-24T00:08:52.462Z,49.30
2019-02-24T00:11:23.093Z,48.40
2019-02-24T00:13:53.741Z,47.70
2019-02-24T00:16:24.384Z,46.40
2019-02-24T00:18:54.534Z,49.60
2019-02-24T00:21:24.796Z,50.40
2019-02-24T00:23:55.322Z,50.50
2019-02-24T00:26:26.129Z,51.30
2019-02-24T00:28:56.718Z,50.20
2019-02-24T00:31:27.301Z,49.90
2019-02-24T00:33:59.125Z,50.10
2019-02-24T00:36:29.698Z,50.00
2019-02-24T00:39:00.373Z,50.90
2019-02-24T00:41:31.050Z,49.60
2019-02-24T00:44:01.476Z,49.50
2019-02-24T00:46:31.790Z,49.90
2019-02-24T00:49:02.168Z,50.30
2019-02-24T00:51:32.912Z,49.50
2019-02-24T00:54:03.566Z,48.90
2019-02-24T00:56:34.140Z,49.20
2019-02-24T00:59:04.830Z,49.80
2019-02-24T01:01:34.806Z,49.30
2019-02-24T01:04:04.569Z,48.70
2019-02-24T01:06:35.098Z,48.90
2019-02-24T01:09:05.532Z,48.40
2019-02-24T01:11:35.448Z,49.20
2019-02-24T01:14:05.616Z,49.40
2019-02-24T01:16:36.068Z,49.10
2019-02-24T01:19:06.338Z,49.40
2019-02-24T01:21:36.802Z,49.20
2019-02-24T01:24:07.341Z,48.80
2019-02-24T01:26:37.927Z,49.10
2019-02-24T01:29:08.484Z,48.80
2019-02-24T01:31:38.950Z,49.20
2019-02-24T01:34:09.330Z,49.10
2019-02-24T01:36:39.798Z,49.40
2019-02-24T01:39:09.917Z,49.50
2019-02-24T01:41:39.522Z,49.50
2019-02-24T01:44:09.808Z,49.10
2019-02-24T01:46:40.369Z,49.60
2019-02-24T01:49:10.975Z,49.50
2019-02-24T01:51:41.553Z,49.30
2019-02-24T01:54:12.079Z,50.10
2019-02-24T01:56:42.360Z,51.30
2019-02-24T01:59:12.973Z,51.20
2019-02-24T02:01:43.178Z,51.50
2019-02-24T02:04:13.698Z,52.80
2019-02-24T02:06:43.629Z,52.20
2019-02-24T02:09:14.210Z,53.10
2019-02-24T02:11:44.016Z,54.10
2019-02-24T02:14:14.666Z,54.30
2019-02-24T02:16:44.834Z,54.20
2019-02-24T02:19:15.346Z,54.70
2019-02-24T02:21:46.075Z,54.70
2019-02-24T02:24:16.635Z,53.80
2019-02-24T02:26:46.917Z,52.60
2019-02-24T02:29:17.149Z,53.70
2019-02-24T02:31:47.619Z,52.90
2019-02-24T02:34:17.820Z,53.10
2019-02-24T02:36:48.428Z,53.70
2019-02-24T02:39:18.661Z,53.80
2019-02-24T02:41:48.534Z,54.20
2019-02-24T02:44:18.785Z,54.20
2019-02-24T02:46:49.540Z,55.40
2019-02-24T02:49:19.440Z,55.60
2019-02-24T02:51:49.976Z,55.70
2019-02-24T02:54:20.516Z,55.50
2019-02-24T02:56:50.763Z,56.80
2019-02-24T02:59:21.216Z,56.80
2019-02-24T03:01:51.397Z,57.50
2019-02-24T03:04:40.734Z,57.30
2019-02-24T03:07:29.910Z,57.10
2019-02-24T03:10:02.705Z,56.80
2019-02-24T03:12:32.306Z,56.80
2019-02-24T03:15:21.601Z,57.30
2019-02-24T03:17:51.899Z,57.00
2019-02-24T03:20:22.459Z,57.30
2019-02-24T03:22:53.132Z,56.80
2019-02-24T03:25:23.385Z,56.20
2019-02-24T03:27:53.620Z,55.40
2019-02-24T03:30:23.790Z,54.90
2019-02-24T03:32:54.149Z,54.80
2019-02-24T03:35:24.429Z,54.70
2019-02-24T03:37:54.724Z,54.90
2019-02-24T03:40:25.271Z,54.40
2019-02-24T03:42:55.813Z,54.50
2019-02-24T03:45:26.481Z,54.50
2019-02-24T03:47:56.757Z,55.00
2019-02-24T03:50:27.316Z,55.20
2019-02-24T03:52:57.856Z,56.60
2019-02-24T03:55:28.432Z,56.70
2019-02-24T03:57:59.103Z,56.70
2019-02-24T04:00:29.503Z,56.60
2019-02-24T04:02:59.670Z,55.90
2019-02-24T04:05:30.366Z,56.00
2019-02-24T04:08:00.599Z,57.40
2019-02-24T04:10:31.168Z,56.60
2019-02-24T04:13:01.853Z,57.40
2019-02-24T04:15:32.320Z,58.10
2019-02-24T04:18:02.570Z,58.00
2019-02-24T04:20:33.298Z,58.10
2019-02-24T04:23:05.896Z,58.60
2019-02-24T04:25:36.129Z,59.20
2019-02-24T04:28:06.642Z,58.90
2019-02-24T04:30:37.142Z,59.00
2019-02-24T04:33:07.632Z,57.10
2019-02-24T04:35:38.114Z,58.00
2019-02-24T04:38:08.384Z,58.80
2019-02-24T04:40:38.572Z,59.10
2019-02-24T04:43:09.179Z,58.60
2019-02-24T04:45:39.786Z,59.10
2019-02-24T04:48:10.047Z,58.40
2019-02-24T04:50:40.332Z,56.60
2019-02-24T04:53:10.862Z,57.30
2019-02-24T04:55:41.018Z,57.90
2019-02-24T04:58:11.238Z,57.80
2019-02-24T05:00:41.183Z,58.90
2019-02-24T05:03:11.696Z,58.40
2019-02-24T05:05:42.090Z,58.30
2019-02-24T05:08:11.566Z,58.60
2019-02-24T05:10:42.180Z,58.90
2019-02-24T05:13:12.366Z,57.60
2019-02-24T05:15:42.588Z,57.50
2019-02-24T05:18:13.239Z,58.00
2019-02-24T05:20:43.846Z,57.90
2019-02-24T05:23:14.021Z,57.50
2019-02-24T05:25:44.560Z,57.50
2019-02-24T05:28:15.258Z,57.60
2019-02-24T05:30:45.810Z,57.90
2019-02-24T05:33:16.317Z,57.50
2019-02-24T05:35:46.215Z,57.50
2019-02-24T05:38:16.695Z,57.70
2019-02-24T05:40:46.933Z,57.70
2019-02-24T05:43:17.298Z,58.00
2019-02-24T05:45:47.585Z,58.10
2019-02-24T05:48:17.848Z,57.70
2019-02-24T05:50:48.485Z,58.10
2019-02-24T05:53:19.077Z,58.50
2019-02-24T05:55:49.700Z,58.20
2019-02-24T05:58:19.971Z,58.10
2019-02-24T06:00:50.566Z,57.50
2019-02-24T06:03:20.934Z,57.60
2019-02-24T06:05:51.104Z,58.20
2019-02-24T06:08:21.384Z,58.30
2019-02-24T06:10:51.610Z,58.90
2019-02-24T06:13:22.072Z,59.10
2019-02-24T06:15:52.276Z,58.80
2019-02-24T06:18:22.914Z,59.10
2019-02-24T06:20:53.169Z,58.10
2019-02-24T06:23:23.446Z,58.20
2019-02-24T06:25:53.950Z,58.60
2019-02-24T06:28:24.312Z,59.10
2019-02-24T06:30:54.506Z,59.60
2019-02-24T06:33:25.026Z,59.90
2019-02-24T06:35:55.401Z,59.70
2019-02-24T06:38:25.879Z,61.40
2019-02-24T06:40:56.460Z,61.30
2019-02-24T06:43:26.942Z,61.10
2019-02-24T06:45:57.539Z,60.90
2019-02-24T06:48:27.537Z,59.70
2019-02-24T06:51:01.111Z,59.10
2019-02-24T06:53:31.322Z,58.80
2019-02-24T06:56:01.956Z,58.80
2019-02-24T06:58:32.255Z,59.50
2019-02-24T07:01:02.150Z,59.50
2019-02-24T07:03:32.645Z,59.00
2019-02-24T07:06:21.742Z,58.40
2019-02-24T07:08:52.234Z,58.40
2019-02-24T07:11:22.480Z,58.20
2019-02-24T07:13:54.620Z,58.20
2019-02-24T07:16:25.216Z,57.90
2019-02-24T07:18:55.501Z,57.90
2019-02-24T07:21:25.694Z,58.00
2019-02-24T07:23:56.296Z,58.00
2019-02-24T07:26:26.750Z,58.10
2019-02-24T07:28:57.285Z,58.20
2019-02-24T07:31:27.494Z,58.50
2019-02-24T07:33:57.930Z,59.40
2019-02-24T07:36:28.548Z,58.00
2019-02-24T07:38:59.067Z,57.90
2019-02-24T07:41:28.968Z,57.70
2019-02-24T07:43:59.602Z,58.00
2019-02-24T07:46:30.194Z,57.50
2019-02-24T07:49:00.631Z,57.60
2019-02-24T07:51:31.294Z,57.50
2019-02-24T07:54:01.485Z,55.70
2019-02-24T07:56:32.178Z,55.40
2019-02-24T07:59:02.416Z,56.40
2019-02-24T08:01:32.704Z,55.90
2019-02-24T08:04:03.365Z,54.80
2019-02-24T08:06:33.660Z,55.70
2019-02-24T08:09:05.008Z,56.60
2019-02-24T08:11:35.681Z,55.70
2019-02-24T08:14:05.564Z,55.30
2019-02-24T08:16:35.108Z,54.80
2019-02-24T08:19:05.516Z,55.30
2019-02-24T08:21:35.756Z,55.00
2019-02-24T08:24:06.328Z,54.90
2019-02-24T08:26:36.588Z,55.20
2019-02-24T08:29:07.238Z,55.00
2019-02-24T08:31:37.876Z,55.40
2019-02-24T08:34:08.462Z,55.00
2019-02-24T08:36:38.832Z,54.40
2019-02-24T08:39:09.164Z,55.10
2019-02-24T08:41:39.750Z,55.30
2019-02-24T08:44:10.394Z,55.10
2019-02-24T08:46:40.372Z,55.20
2019-02-24T08:49:11.037Z,55.40
2019-02-24T08:51:41.656Z,55.00
2019-02-24T08:54:12.350Z,55.70
2019-02-24T08:56:42.982Z,55.70
2019-02-24T08:59:13.518Z,54.00
2019-02-24T09:01:43.808Z,54.30
2019-02-24T09:04:14.084Z,53.40
2019-02-24T09:06:43.870Z,53.80
2019-02-24T09:09:14.060Z,53.60
2019-02-24T09:11:44.328Z,53.60
2019-02-24T09:14:14.535Z,53.10
2019-02-24T09:16:45.086Z,53.10
2019-02-24T09:19:15.842Z,52.40
2019-02-24T09:21:46.512Z,51.80
2019-02-24T09:24:17.039Z,52.60
2019-02-24T09:26:47.594Z,50.50
2019-02-24T09:29:17.516Z,50.40
2019-02-24T09:31:47.939Z,51.50
2019-02-24T09:34:18.621Z,49.60
2019-02-24T09:36:49.294Z,50.30
2019-02-24T09:39:19.814Z,50.80
2019-02-24T09:41:50.290Z,50.90
2019-02-24T09:44:20.798Z,51.90
2019-02-24T09:46:51.350Z,51.90
2019-02-24T09:49:21.293Z,50.90
2019-02-24T09:51:52.438Z,51.00
2019-02-24T09:54:22.758Z,51.30
2019-02-24T09:56:52.988Z,49.00
2019-02-24T09:59:23.302Z,48.90
2019-02-24T10:01:53.941Z,50.30
2019-02-24T10:04:24.540Z,47.50
2019-02-24T10:06:54.397Z,49.80
2019-02-24T10:09:25.015Z,47.50
2019-02-24T10:11:55.358Z,46.20
2019-02-24T10:14:25.238Z,47.60
2019-02-24T10:16:55.816Z,47.30
2019-02-24T10:19:26.284Z,44.50
2019-02-24T10:21:56.860Z,42.40
2019-02-24T10:24:27.362Z,41.70
2019-02-24T10:26:57.925Z,41.00
2019-02-24T10:29:28.256Z,40.90
2019-02-24T10:31:58.808Z,40.80
2019-02-24T10:34:29.311Z,41.00
2019-02-24T10:36:59.447Z,39.70
2019-02-24T10:39:29.966Z,39.60
2019-02-24T10:42:00.257Z,40.70
2019-02-24T10:44:30.503Z,42.40
2019-02-24T10:47:02.255Z,42.40
2019-02-24T10:49:32.813Z,42.10
2019-02-24T10:52:03.516Z,42.60
2019-02-24T10:54:33.864Z,42.80
2019-02-24T10:57:04.514Z,42.00
2019-02-24T10:59:34.547Z,40.70
2019-02-24T11:02:04.754Z,41.10
2019-02-24T11:04:35.190Z,40.70
2019-02-24T11:07:05.814Z,39.30
2019-02-24T11:09:36.052Z,39.10
2019-02-24T11:12:08.771Z,41.10
2019-02-24T11:14:38.991Z,39.70
2019-02-24T11:17:09.501Z,42.40
2019-02-24T11:19:39.710Z,41.10
2019-02-24T11:22:09.678Z,41.60
2019-02-24T11:24:39.554Z,40.60
2019-02-24T11:27:09.454Z,42.40
2019-02-24T11:29:39.934Z,40.60
2019-02-24T11:32:09.812Z,39.30
2019-02-24T11:34:40.374Z,37.90
2019-02-24T11:37:29.702Z,36.90
2019-02-24T11:40:00.310Z,37.80
2019-02-24T11:42:30.935Z,37.90
2019-02-24T11:45:00.870Z,37.20
2019-02-24T11:47:31.223Z,38.70
2019-02-24T11:50:01.052Z,38.00
2019-02-24T11:52:31.564Z,36.70
2019-02-24T11:55:01.462Z,34.10
2019-02-24T11:57:31.745Z,35.10
2019-02-24T12:00:01.928Z,32.60
2019-02-24T12:02:34.570Z,32.30
2019-02-24T12:05:04.395Z,33.30
2019-02-24T12:07:34.997Z,35.20
2019-02-24T12:10:05.260Z,36.60
2019-02-24T12:12:35.800Z,35.20
2019-02-24T12:15:06.392Z,37.50
2019-02-24T12:17:36.571Z,36.10
2019-02-24T12:20:08.308Z,38.10
2019-02-24T12:22:38.839Z,36.80
2019-02-24T12:25:09.506Z,38.40
2019-02-24T12:27:40.053Z,36.20
2019-02-24T12:30:11.163Z,37.40
2019-02-24T12:32:41.867Z,39.70
2019-02-24T12:35:12.378Z,39.90
2019-02-24T12:37:43.065Z,38.00
2019-02-24T12:40:13.260Z,32.80
2019-02-24T12:42:43.239Z,31.50
2019-02-24T12:45:13.659Z,31.60
2019-02-24T12:47:44.160Z,34.80
2019-02-24T12:50:14.719Z,34.10
2019-02-24T12:52:46.019Z,35.10
2019-02-24T12:55:16.599Z,35.40
2019-02-24T12:57:46.540Z,33.60
2019-02-24T13:00:18.099Z,32.40
2019-02-24T13:02:48.606Z,31.80
2019-02-24T13:05:18.758Z,32.70
2019-02-24T13:07:49.280Z,34.80
2019-02-24T13:10:19.783Z,33.40
2019-02-24T13:12:50.331Z,29.00
2019-02-24T13:15:20.917Z,30.80
2019-02-24T13:17:51.202Z,29.60
2019-02-24T13:20:21.228Z,32.20
2019-02-24T13:22:51.822Z,28.70
2019-02-24T13:25:22.427Z,27.10
2019-02-24T13:27:52.296Z,30.00
2019-02-24T13:30:22.814Z,31.30
2019-02-24T13:32:53.492Z,31.30
2019-02-24T13:35:23.806Z,31.10
2019-02-24T13:37:54.257Z,30.80
2019-02-24T13:40:24.535Z,32.20
2019-02-24T13:42:54.875Z,32.20
2019-02-24T13:45:26.902Z,29.60
2019-02-24T13:47:57.380Z,30.70
2019-02-24T13:50:27.600Z,32.50
2019-02-24T13:52:57.846Z,31.40
2019-02-24T13:55:28.482Z,31.00
2019-02-24T13:57:58.711Z,30.40
2019-02-24T14:00:29.272Z,30.00
2019-02-24T14:03:00.005Z,30.10
2019-02-24T14:05:30.037Z,29.70
2019-02-24T14:07:59.889Z,31.80
2019-02-24T14:10:30.407Z,30.00
2019-02-24T14:13:01.046Z,32.00
2019-02-24T14:15:31.535Z,28.30
2019-02-24T14:18:01.779Z,28.00
2019-02-24T14:20:32.034Z,29.20
2019-02-24T14:23:02.620Z,29.60
2019-02-24T14:25:32.782Z,29.60
2019-02-24T14:28:03.371Z,29.20
2019-02-24T14:30:34.047Z,29.50
2019-02-24T14:33:04.660Z,28.70
2019-02-24T14:35:35.257Z,29.40
2019-02-24T14:38:05.784Z,28.90
2019-02-24T14:40:35.984Z,29.10
2019-02-24T14:43:06.258Z,29.60
2019-02-24T14:45:36.808Z,30.50
2019-02-24T14:48:07.487Z,30.60
2019-02-24T14:50:37.400Z,32.70
2019-02-24T14:53:07.211Z,32.20
2019-02-24T14:55:39.457Z,32.00
2019-02-24T14:58:09.506Z,31.40
2019-02-24T15:00:40.099Z,31.80
2019-02-24T15:03:10.642Z,32.00
2019-02-24T15:05:42.490Z,32.00
2019-02-24T15:08:12.709Z,33.10
2019-02-24T15:10:43.266Z,32.70
2019-02-24T15:13:13.870Z,32.90
2019-02-24T15:15:43.744Z,33.60
2019-02-24T15:18:13.557Z,34.90
2019-02-24T15:20:44.087Z,35.20
2019-02-24T15:23:14.670Z,36.00
2019-02-24T15:25:45.246Z,36.70
2019-02-24T15:28:15.791Z,36.80
2019-02-24T15:30:46.442Z,36.70
2019-02-24T15:33:35.692Z,36.30
2019-02-24T15:36:06.039Z,36.50
2019-02-24T15:38:36.580Z,37.80
2019-02-24T15:41:07.119Z,36.80
2019-02-24T15:43:37.388Z,37.10
2019-02-24T15:46:07.617Z,38.20
2019-02-24T15:48:38.271Z,38.30
2019-02-24T15:51:08.521Z,39.10
2019-02-24T15:53:39.082Z,39.20
2019-02-24T15:56:09.350Z,39.20
2019-02-24T15:58:39.939Z,39.40
2019-02-24T16:01:10.615Z,39.10
2019-02-24T16:03:40.917Z,39.30
2019-02-24T16:06:11.655Z,39.30
2019-02-24T16:08:42.195Z,38.50
2019-02-24T16:11:12.434Z,38.60
2019-02-24T16:13:42.658Z,38.40
2019-02-24T16:16:12.890Z,38.20
2019-02-24T16:18:43.402Z,38.60
2019-02-24T16:21:14.007Z,39.60
2019-02-24T16:23:44.394Z,39.60
2019-02-24T16:26:14.949Z,39.50
2019-02-24T16:28:46.465Z,39.70
2019-02-24T16:31:16.912Z,40.00
2019-02-24T16:33:47.209Z,40.00
2019-02-24T16:36:17.717Z,40.80
2019-02-24T16:38:48.498Z,41.30
2019-02-24T16:41:18.741Z,39.80
2019-02-24T16:43:49.277Z,39.80
2019-02-24T16:46:19.718Z,40.40
2019-02-24T16:48:49.864Z,40.10
2019-02-24T16:51:20.488Z,40.20
2019-02-24T16:53:51.059Z,41.00
2019-02-24T16:56:21.714Z,40.10
2019-02-24T16:58:52.311Z,39.50
2019-02-24T17:01:22.936Z,40.00
2019-02-24T17:03:53.520Z,39.70
2019-02-24T17:06:24.095Z,40.30
2019-02-24T17:09:00.583Z,39.70
2019-02-24T17:11:26.854Z,40.20
2019-02-24T17:13:57.579Z,40.60
2019-02-24T17:16:27.820Z,40.80
2019-02-24T17:18:58.459Z,41.20
2019-02-24T17:21:28.709Z,40.60
2019-02-24T17:23:59.255Z,41.40
2019-02-24T17:26:29.770Z,41.20
2019-02-24T17:29:00.375Z,40.80
2019-02-24T17:31:31.006Z,41.50
2019-02-24T17:34:01.539Z,42.20
2019-02-24T17:36:31.789Z,41.00
2019-02-24T17:39:02.401Z,42.00
2019-02-24T17:41:33.021Z,42.30
2019-02-24T17:44:03.561Z,41.70
2019-02-24T17:46:34.152Z,43.20
2019-02-24T17:49:04.305Z,41.70
2019-02-24T17:51:34.888Z,41.00
2019-02-24T17:54:05.179Z,40.60
2019-02-24T17:56:35.587Z,41.30
2019-02-24T17:59:05.930Z,42.20
2019-02-24T18:01:36.463Z,42.50
2019-02-24T18:04:06.789Z,42.30
2019-02-24T18:06:37.378Z,41.70
2019-02-24T18:09:08.572Z,42.10
2019-02-24T18:11:38.468Z,42.70
2019-02-24T18:14:09.011Z,42.70
2019-02-24T18:16:39.252Z,42.60
2019-02-24T18:19:09.522Z,43.50
2019-02-24T18:21:39.792Z,44.00
2019-02-24T18:24:10.017Z,43.80
2019-02-24T18:26:40.504Z,43.70
2019-02-24T18:29:11.117Z,44.40
2019-02-24T18:31:41.307Z,44.00
2019-02-24T18:34:11.632Z,45.00
2019-02-24T18:36:42.234Z,45.10
2019-02-24T18:39:12.624Z,46.20
2019-02-24T18:41:42.817Z,44.90
2019-02-24T18:44:13.459Z,46.10
2019-02-24T18:46:44.105Z,46.40
2019-02-24T18:49:14.335Z,46.70
2019-02-24T18:51:44.620Z,46.70
2019-02-24T18:54:14.347Z,47.10
2019-02-24T18:56:44.969Z,47.00
2019-02-24T18:59:15.453Z,46.70
2019-02-24T19:01:45.577Z,46.80
2019-02-24T19:04:16.185Z,48.60
2019-02-24T19:06:46.333Z,48.80
2019-02-24T19:09:16.211Z,47.30
2019-02-24T19:11:46.759Z,48.20
2019-02-24T19:14:16.641Z,48.30
2019-02-24T19:16:49.108Z,47.30
2019-02-24T19:19:25.563Z,47.10
2019-02-24T19:21:51.831Z,48.60
2019-02-24T19:24:22.477Z,49.60
2019-02-24T19:26:52.667Z,50.60
2019-02-24T19:29:23.270Z,50.80
2019-02-24T19:31:53.484Z,51.80
2019-02-24T19:34:23.747Z,51.70
2019-02-24T19:36:54.410Z,51.70
2019-02-24T19:39:24.572Z,53.00
2019-02-24T19:41:55.245Z,53.50
2019-02-24T19:44:25.477Z,53.20
2019-02-24T19:46:56.226Z,53.40
2019-02-24T19:49:26.414Z,53.10
2019-02-24T19:51:56.871Z,52.50
2019-02-24T19:54:27.127Z,53.10
2019-02-24T19:56:57.412Z,52.60
2019-02-24T19:59:27.969Z,52.60
2019-02-24T20:01:58.601Z,53.00
2019-02-24T20:04:29.184Z,51.90
2019-02-24T20:06:59.665Z,50.70
2019-02-24T20:09:30.168Z,48.00
2019-02-24T20:12:00.821Z,47.50
2019-02-24T20:14:31.434Z,47.50
2019-02-24T20:17:01.703Z,47.70
2019-02-24T20:19:32.301Z,48.10
2019-02-24T20:22:02.254Z,48.20
2019-02-24T20:24:33.217Z,48.30
2019-02-24T20:27:03.949Z,48.40
2019-02-24T20:29:34.553Z,48.40
2019-02-24T20:32:04.749Z,50.20
2019-02-24T20:34:35.098Z,52.30
2019-02-24T20:37:05.455Z,52.60
2019-02-24T20:39:54.300Z,53.00
2019-02-24T20:42:24.907Z,52.60
2019-02-24T20:44:54.768Z,53.10
2019-02-24T20:47:25.404Z,53.20
2019-02-24T20:49:55.871Z,53.80
2019-02-24T20:52:26.423Z,53.00
2019-02-24T20:54:56.938Z,54.10
2019-02-24T20:57:27.307Z,53.40
2019-02-24T20:59:57.859Z,52.30
2019-02-24T21:02:28.327Z,53.50
2019-02-24T21:04:58.869Z,54.00
2019-02-24T21:07:29.223Z,51.80
2019-02-24T21:09:59.729Z,50.20
2019-02-24T21:12:29.938Z,51.70
2019-02-24T21:15:00.502Z,50.80
2019-02-24T21:17:30.983Z,52.20
2019-02-24T21:20:01.438Z,52.40
2019-02-24T21:22:32.003Z,50.40
2019-02-24T21:25:02.539Z,51.50
2019-02-24T21:27:33.029Z,54.10
2019-02-24T21:30:02.893Z,54.30
2019-02-24T21:32:33.099Z,55.80
2019-02-24T21:35:03.339Z,54.80
2019-02-24T21:37:32.856Z,55.10
2019-02-24T21:40:02.774Z,55.70
2019-02-24T21:42:32.989Z,56.00
2019-02-24T21:45:03.613Z,56.20
2019-02-24T21:47:33.819Z,56.30
2019-02-24T21:50:04.319Z,56.60
2019-02-24T21:52:34.695Z,56.20
2019-02-24T21:55:05.470Z,55.00
2019-02-24T21:57:36.044Z,55.40
2019-02-24T22:00:08.845Z,55.50
2019-02-24T22:02:39.084Z,56.40
2019-02-24T22:05:10.130Z,55.60
2019-02-24T22:07:40.067Z,56.30
2019-02-24T22:10:11.219Z,56.60
2019-02-24T22:12:41.779Z,56.90
2019-02-24T22:15:14.528Z,56.20
2019-02-24T22:17:44.702Z,56.40
2019-02-24T22:20:16.576Z,56.20
2019-02-24T22:22:47.067Z,57.10
2019-02-24T22:25:17.136Z,56.90
2019-02-24T22:27:47.653Z,56.20
2019-02-24T22:30:18.561Z,55.80
2019-02-24T22:32:49.136Z,55.20
2019-02-24T22:35:19.191Z,54.00
2019-02-24T22:37:49.870Z,54.10
2019-02-24T22:40:20.512Z,53.80
2019-02-24T22:42:51.164Z,54.10
2019-02-24T22:45:20.697Z,53.60
2019-02-24T22:47:50.952Z,52.80
2019-02-24T22:50:21.127Z,52.30
2019-02-24T22:52:51.291Z,53.00
2019-02-24T22:55:40.194Z,53.70
2019-02-24T22:58:10.426Z,54.10
2019-02-24T23:01:09.927Z,54.10
2019-02-24T23:03:41.546Z,54.50
2019-02-24T23:06:12.366Z,55.50
2019-02-24T23:08:42.236Z,55.90
2019-02-24T23:11:12.413Z,56.40
2019-02-24T23:13:42.655Z,56.00
2019-02-24T23:16:12.608Z,56.60
2019-02-24T23:18:43.048Z,55.50
2019-02-24T23:21:13.531Z,55.50
2019-02-24T23:23:44.042Z,55.50
2019-02-24T23:26:14.595Z,56.60
2019-02-24T23:28:45.094Z,56.50
2019-02-24T23:31:15.557Z,56.70
2019-02-24T23:33:46.068Z,56.40
2019-02-24T23:36:16.715Z,56.30
2019-02-24T23:38:48.166Z,55.20
2019-02-24T23:41:18.367Z,55.10
2019-02-24T23:43:48.519Z,54.80
2019-02-24T23:46:19.114Z,54.50
2019-02-24T23:48:49.594Z,54.20
2019-02-24T23:51:20.138Z,53.50
2019-02-24T23:53:50.758Z,53.90
2019-02-24T23:56:21.362Z,53.20
2019-02-24T23:58:52.081Z,53.50
